Mariposa, CA

1:30 PM PDT on September 16, 2014 (GMT -0700)
Fresno Yosemite International | Change Station
CLOSE
Current Station
Airport
Location: Fresno,
Elevation: 328 ft
Nearby Weather Stations

Elev 328 ft 36.78 °N, 119.72 °W | Updated 37 minutes ago

Clear
Clear
88 °F
Feels Like 88 °F
N
0
Wind Variable Wind from North

Today
High -- | Low -- °F
--% Chance of Precip.
Yesterday
High -- | Low -- °F
Precip. -- in
6:42 AM 7:05 PM
Last Quarter, 42% visible
Pressure 29.85 in
Visibility 10.0 miles
Clouds Few 7000 ft
Dew Point 51 °F
Humidity 28%
Rainfall 0.00 in
Snow Depth 0 in , 0 in , 0 in
UV 8 out of 12
Pollen 6.80 out of 12
Air Quality Not available.
Flu Activity Not available.
METAR KFAT 161953Z 00000KT 10SM FEW070 31/11 A2986 RMK AO2 SLP106 CU OMTNS DSNT N-E-S MTNS OBSC FU HZ SE T03110106

More Conditions Fewer Conditions

Pressure 29.85 in
Visibility 10.0 miles
Clouds Few 7000 ft
Dew Point 51 °F
Humidity 28%
Rainfall 0.00 in
Snow Depth 0 in , 0 in , 0 in
UV 8 out of 12
Pollen 6.80 out of 12
Air Quality Not available.
Flu Activity Not available.
METAR KFAT 161953Z 00000KT 10SM FEW070 31/11 A2986 RMK AO2 SLP106 CU OMTNS DSNT N-E-S MTNS OBSC FU HZ SE T03110106

More Conditions Fewer Conditions

10-Day Weather Forecast

Almanac

Astronomy

Sep. 16, 2014 Rise Set
Actual Time 6:42 AM PDT 7:05 PM PDT
Civil Twilight 6:16 AM PDT 7:31 PM PDT
Nautical Twilight 5:45 AM PDT 8:02 PM PDT
Astronomical Twilight 5:14 AM PDT 8:33 PM PDT
Moon 12:01 AM PDT 2:28 PM PDT
Length of Visible Light 13h 15m
Length of Day
12h 23m
Tomorrow will be 2m 23s shorter.
Last Quarter, 42% of the Moon is Illuminated
Today
Last Quarter
Sep 24
New
Oct 1
First Quarter
Oct 8
Full
Oct 15
Last Quarter

Today's Extremes

State Highs State Lows

Community

WunderPhotos

Upload Photos

1,753,871 photos uploaded!

Nearby

Snow Depth

Station Depth Elevation
Echo Peak 0 in 7800 ft
Adin Mountain 0 in 6200 ft
Spratt Creek 0 in 6200 ft
Leavitt Meadows 0 in 7200 ft
CSS Lab 1 in 6900 ft

Earthquake Activity

City Distance Mag. Time & Date
Inyokern, California 150 miles 3.2 5:56 PM PDT
2014-09-14
Minimum magnitude displayed is 2.5.

Coastal Water Temperatures

Place Temperature
No Stations Reporting

Nearby Weather Stations